createdAt,value
2022-08-07T00:00:25.724Z,100055.25
2022-08-07T00:02:53.925Z,100055.25
2022-08-07T00:05:23.633Z,100055.50
2022-08-07T00:08:00.351Z,100057.47
2022-08-07T00:10:31.212Z,100058.66
2022-08-07T00:13:02.307Z,100052.66
2022-08-07T00:15:35.882Z,100058.50
2022-08-07T00:18:05.590Z,100052.25
2022-08-07T00:20:34.499Z,100045.72
2022-08-07T00:23:02.910Z,100049.00
2022-08-07T00:25:37.560Z,100041.06
2022-08-07T00:28:10.677Z,100047.28
2022-08-07T00:30:38.758Z,100048.97
2022-08-07T00:33:08.418Z,100055.50
2022-08-07T00:35:36.695Z,100051.84
2022-08-07T00:38:04.787Z,100054.66
2022-08-07T00:40:39.837Z,100059.06
2022-08-07T00:44:00.920Z,100050.97
2022-08-07T00:46:02.360Z,100060.28
2022-08-07T00:48:35.299Z,100048.72
2022-08-07T00:51:03.135Z,100051.09
2022-08-07T00:53:39.229Z,100047.53
2022-08-07T00:56:18.787Z,100047.28
2022-08-07T00:58:50.018Z,100042.72
2022-08-07T01:01:18.114Z,100043.84
2022-08-07T01:03:56.860Z,100042.47
2022-08-07T01:06:28.900Z,100038.78
2022-08-07T01:08:58.609Z,100038.88
2022-08-07T01:12:24.024Z,100045.00
2022-08-07T01:14:16.880Z,100047.69
2022-08-07T01:16:47.235Z,100043.13
2022-08-07T01:19:18.803Z,100033.66
2022-08-07T01:21:50.051Z,100042.19
2022-08-07T01:24:24.064Z,100045.03
2022-08-07T01:26:52.621Z,100047.56
2022-08-07T01:29:27.856Z,100039.88
2022-08-07T01:31:59.905Z,100038.91
2022-08-07T01:34:31.108Z,100045.28
2022-08-07T01:37:00.147Z,100042.91
2022-08-07T01:39:41.168Z,100039.22
2022-08-07T01:42:39.888Z,100037.78
2022-08-07T01:45:04.406Z,100041.06
2022-08-07T01:48:19.394Z,100041.47
2022-08-07T01:50:28.823Z,100042.41
2022-08-07T01:52:58.402Z,100045.56
2022-08-07T01:55:29.107Z,100039.31
2022-08-07T01:58:06.136Z,100041.72
2022-08-07T02:00:49.960Z,100037.84
2022-08-07T02:03:21.902Z,100046.00
2022-08-07T02:05:59.702Z,100045.25
2022-08-07T02:08:29.268Z,100046.12
2022-08-07T02:11:00.125Z,100046.12
2022-08-07T02:13:56.591Z,100041.31
2022-08-07T02:16:19.852Z,100038.47
2022-08-07T02:18:48.945Z,100044.72
2022-08-07T02:21:18.470Z,100044.16
2022-08-07T02:23:46.506Z,100057.66
2022-08-07T02:26:33.029Z,100058.50
2022-08-07T02:29:05.590Z,100050.00
2022-08-07T02:31:42.653Z,100058.34
2022-08-07T02:34:11.516Z,100059.78
2022-08-07T02:36:46.196Z,100061.34
2022-08-07T02:39:17.508Z,100059.62
2022-08-07T02:42:10.285Z,100057.66
2022-08-07T02:44:48.150Z,100058.06
2022-08-07T02:47:19.709Z,100058.22
2022-08-07T02:50:05.025Z,100065.56
2022-08-07T02:52:47.834Z,100063.13
2022-08-07T02:55:27.592Z,100066.56
2022-08-07T02:57:56.174Z,100050.41
2022-08-07T03:00:24.912Z,100054.22
2022-08-07T03:02:55.408Z,100052.69
2022-08-07T03:05:24.766Z,100060.19
2022-08-07T03:08:05.262Z,100053.50
2022-08-07T03:10:40.623Z,100045.28
2022-08-07T03:13:19.788Z,100049.56
2022-08-07T03:15:56.290Z,100057.47
2022-08-07T03:18:34.643Z,100054.94
2022-08-07T03:21:08.603Z,100054.53
2022-08-07T03:24:18.159Z,100052.38
2022-08-07T03:26:29.074Z,100046.16
2022-08-07T03:28:57.485Z,100045.16
2022-08-07T03:31:42.422Z,100063.75
2022-08-07T03:34:18.696Z,100065.84
2022-08-07T03:36:51.082Z,100054.94
2022-08-07T03:39:46.570Z,100057.22
2022-08-07T03:42:06.551Z,100045.88
2022-08-07T03:44:35.202Z,100052.94
2022-08-07T03:47:10.735Z,100057.22
2022-08-07T03:49:39.551Z,100060.16
2022-08-07T03:52:22.331Z,100068.53
2022-08-07T03:54:54.868Z,100073.81
2022-08-07T03:58:33.262Z,100075.78
2022-08-07T04:00:12.223Z,100079.75
2022-08-07T04:02:47.272Z,100084.28
2022-08-07T04:05:24.034Z,100090.66
2022-08-07T04:07:58.230Z,100090.97
2022-08-07T04:10:29.483Z,100093.53
2022-08-07T04:12:57.996Z,100095.06
2022-08-07T04:15:28.127Z,100093.53
2022-08-07T04:18:56.589Z,100095.81
2022-08-07T04:20:54.650Z,100105.72
2022-08-07T04:23:24.902Z,100100.78
2022-08-07T04:26:12.081Z,100102.31
2022-08-07T04:28:45.219Z,100110.97
2022-08-07T04:31:19.767Z,100115.34
2022-08-07T04:33:55.062Z,100117.63
2022-08-07T04:36:26.425Z,100110.38
2022-08-07T04:38:55.306Z,100108.97
2022-08-07T04:41:24.430Z,100115.34
2022-08-07T04:44:12.139Z,100121.75
2022-08-07T04:47:04.387Z,100122.44
2022-08-07T04:49:37.711Z,100113.34
2022-08-07T04:52:26.448Z,100116.78
2022-08-07T04:55:00.489Z,100125.97
2022-08-07T04:58:09.598Z,100123.84
2022-08-07T05:00:43.386Z,100121.91
2022-08-07T05:04:00.936Z,100117.63
2022-08-07T05:06:42.957Z,100125.16
2022-08-07T05:09:45.973Z,100112.25
2022-08-07T05:12:27.334Z,100117.94
2022-08-07T05:15:04.087Z,100119.06
2022-08-07T05:17:50.355Z,100122.44
2022-08-07T05:20:25.722Z,100123.16
2022-08-07T05:22:56.002Z,100113.84
2022-08-07T05:25:25.884Z,100118.47
2022-08-07T05:28:20.004Z,100132.81
2022-08-07T05:30:50.114Z,100141.66
2022-08-07T05:33:21.651Z,100139.19
2022-08-07T05:35:50.730Z,100145.19
2022-08-07T05:38:59.954Z,100139.34
2022-08-07T05:41:14.114Z,100145.13
2022-08-07T05:44:01.324Z,100149.41
2022-08-07T05:46:36.689Z,100142.13
2022-08-07T05:49:12.059Z,100143.81
2022-08-07T05:51:46.363Z,100145.41
2022-08-07T05:54:44.524Z,100147.09
2022-08-07T05:57:10.095Z,100145.84
2022-08-07T05:59:57.422Z,100147.97
2022-08-07T06:02:29.209Z,100150.31
2022-08-07T06:05:06.252Z,100146.50
2022-08-07T06:08:13.170Z,100150.13
2022-08-07T06:10:23.604Z,100153.34
2022-08-07T06:12:52.054Z,100152.00
2022-08-07T06:15:21.454Z,100154.78
2022-08-07T06:17:53.880Z,100156.28
2022-08-07T06:23:46.373Z,100160.53
2022-08-07T06:25:54.666Z,100162.59
2022-08-07T06:28:27.147Z,100168.41
2022-08-07T06:30:58.358Z,100163.81
2022-08-07T06:33:34.011Z,100161.50
2022-08-07T06:36:13.799Z,100168.09
2022-08-07T06:38:58.394Z,100170.22
2022-08-07T06:42:00.503Z,100169.19
2022-08-07T06:44:16.400Z,100173.09
2022-08-07T06:46:53.763Z,100176.03
2022-08-07T06:49:33.939Z,100185.75
2022-08-07T06:52:31.628Z,100184.59
2022-08-07T06:55:33.576Z,100186.63
2022-08-07T06:57:59.203Z,100182.69
2022-08-07T07:00:35.035Z,100186.09
2022-08-07T07:03:10.920Z,100182.16
2022-08-07T07:06:02.626Z,100181.44
2022-08-07T07:08:46.452Z,100181.09
2022-08-07T07:12:07.848Z,100174.50
2022-08-07T07:14:08.336Z,100173.59
2022-08-07T07:16:50.605Z,100171.78
2022-08-07T07:19:56.579Z,100171.00
2022-08-07T07:22:35.703Z,100180.75
2022-08-07T07:26:30.844Z,100177.00
2022-08-07T07:28:29.955Z,100189.72
2022-08-07T07:31:17.112Z,100180.41
2022-08-07T07:33:54.919Z,100182.94
2022-08-07T07:36:32.662Z,100177.38
2022-08-07T07:39:01.708Z,100175.72
2022-08-07T07:41:50.736Z,100170.00
2022-08-07T07:44:26.158Z,100162.75
2022-08-07T07:47:04.402Z,100162.16
2022-08-07T07:50:36.040Z,100166.66
2022-08-07T07:52:32.583Z,100163.88
2022-08-07T07:55:01.179Z,100157.75
2022-08-07T07:57:50.465Z,100163.72
2022-08-07T08:00:31.266Z,100160.62
2022-08-07T08:03:07.141Z,100170.72
2022-08-07T08:05:43.233Z,100173.59
2022-08-07T08:08:36.880Z,100171.34
2022-08-07T08:11:16.592Z,100167.13
2022-08-07T08:13:57.268Z,100175.03
2022-08-07T08:16:40.190Z,100171.09
2022-08-07T08:19:17.935Z,100173.56
2022-08-07T08:22:34.213Z,100176.03
2022-08-07T08:25:25.046Z,100173.84
2022-08-07T08:28:23.937Z,100175.78
2022-08-07T08:31:14.819Z,100168.12
2022-08-07T08:33:49.764Z,100164.25
2022-08-07T08:36:30.089Z,100163.41
2022-08-07T08:39:03.145Z,100161.09
2022-08-07T08:41:58.565Z,100171.44
2022-08-07T08:44:44.316Z,100173.13
2022-08-07T08:47:25.620Z,100168.34
2022-08-07T08:50:02.619Z,100164.78
2022-08-07T08:52:40.843Z,100171.53
2022-08-07T08:55:55.266Z,100159.31
2022-08-07T08:58:29.750Z,100159.75
2022-08-07T09:01:19.200Z,100162.50
2022-08-07T09:09:30.033Z,100163.25
2022-08-07T09:12:31.284Z,100162.47
2022-08-07T09:16:20.667Z,100164.97
2022-08-07T09:18:11.529Z,100161.69
2022-08-07T09:20:58.007Z,100169.44
2022-08-07T09:24:31.343Z,100168.63
2022-08-07T09:26:28.203Z,100165.72
2022-08-07T09:30:03.525Z,100155.22
2022-08-07T09:32:01.524Z,100161.00
2022-08-07T09:34:53.899Z,100159.22
2022-08-07T09:37:48.239Z,100151.22
2022-08-07T09:40:47.121Z,100143.22
2022-08-07T09:44:03.298Z,100147.44
2022-08-07T09:47:50.660Z,100153.28
2022-08-07T09:50:02.148Z,100144.75
2022-08-07T09:52:34.633Z,100138.59
2022-08-07T09:55:17.296Z,100136.91
2022-08-07T09:58:17.684Z,100136.75
2022-08-07T10:01:08.253Z,100134.94
2022-08-07T10:04:05.725Z,100133.41
2022-08-07T10:06:49.206Z,100129.41
2022-08-07T10:10:00.044Z,100126.22
2022-08-07T10:12:39.630Z,100117.78
2022-08-07T10:15:15.493Z,100115.00
2022-08-07T10:18:13.139Z,100114.25
2022-08-07T10:21:19.847Z,100110.59
2022-08-07T10:24:21.565Z,100110.97
2022-08-07T10:26:54.289Z,100106.66
2022-08-07T10:29:30.149Z,100102.34
2022-08-07T10:32:02.077Z,100101.19
2022-08-07T10:34:47.383Z,100098.00
2022-08-07T10:37:16.734Z,100100.97
2022-08-07T10:39:57.577Z,100101.78
2022-08-07T10:45:57.229Z,100089.91
2022-08-07T10:48:25.561Z,100089.62
2022-08-07T10:51:57.222Z,100086.16
2022-08-07T10:54:20.353Z,100081.00
2022-08-07T10:57:09.384Z,100077.25
2022-08-07T10:59:54.085Z,100074.06
2022-08-07T11:02:32.952Z,100080.41
2022-08-07T11:05:24.330Z,100077.78
2022-08-07T11:08:12.563Z,100072.56
2022-08-07T11:11:00.251Z,100066.25
2022-08-07T11:14:44.577Z,100062.81
2022-08-07T11:16:52.865Z,100056.31
2022-08-07T11:19:35.676Z,100053.72
2022-08-07T11:22:27.335Z,100050.16
2022-08-07T11:25:09.180Z,100050.50
2022-08-07T11:28:01.646Z,100055.31
2022-08-07T11:30:53.027Z,100042.25
2022-08-07T11:33:53.795Z,100043.78
2022-08-07T11:36:46.743Z,100038.22
2022-08-07T11:43:29.582Z,100040.25
2022-08-07T11:46:32.142Z,100035.59
2022-08-07T11:49:50.458Z,100033.81
2022-08-07T11:52:00.887Z,100024.31
2022-08-07T11:54:38.972Z,100023.25
2022-08-07T12:00:10.778Z,100019.91
2022-08-07T12:03:44.833Z,100012.91
2022-08-07T12:06:39.959Z,100005.94
2022-08-07T12:09:01.492Z,100004.78
2022-08-07T12:11:35.182Z,99996.66
2022-08-07T12:14:24.783Z,99992.91
2022-08-07T12:16:58.920Z,100002.13
2022-08-07T12:20:03.212Z,99998.75
2022-08-07T12:22:56.367Z,99989.53
2022-08-07T12:26:05.700Z,99987.44
2022-08-07T12:28:49.859Z,99980.50
2022-08-07T12:31:53.395Z,99974.38
2022-08-07T12:34:32.120Z,99969.53
2022-08-07T12:37:08.635Z,99975.22
2022-08-07T12:39:51.114Z,99967.62
2022-08-07T12:42:27.797Z,99970.53
2022-08-07T12:45:05.805Z,99968.84
2022-08-07T12:47:44.482Z,99961.72
2022-08-07T12:50:40.222Z,99963.19
2022-08-07T12:54:02.713Z,99965.78
2022-08-07T12:56:22.749Z,99961.44
2022-08-07T12:59:01.397Z,99953.13
2022-08-07T13:01:43.214Z,99952.84
2022-08-07T13:04:34.558Z,99958.00
2022-08-07T13:07:07.077Z,99955.50
2022-08-07T13:10:21.532Z,99944.41
2022-08-07T13:12:36.421Z,99943.69
2022-08-07T13:15:23.612Z,99944.94
2022-08-07T13:18:07.527Z,99938.44
2022-08-07T13:20:54.285Z,99945.94
2022-08-07T13:24:01.729Z,99937.59
2022-08-07T13:26:36.481Z,99936.66
2022-08-07T13:29:13.831Z,99942.47
2022-08-07T13:31:57.274Z,99939.50
2022-08-07T13:34:35.732Z,99930.69
2022-08-07T13:37:19.897Z,99938.03
2022-08-07T13:40:36.702Z,99932.81
2022-08-07T13:42:39.925Z,99926.84
2022-08-07T13:46:07.057Z,99919.53
2022-08-07T13:48:06.241Z,99914.78
2022-08-07T13:51:00.645Z,99914.38
2022-08-07T13:53:55.172Z,99909.09
2022-08-07T13:56:35.548Z,99909.13
2022-08-07T13:59:16.315Z,99903.19
2022-08-07T14:02:04.603Z,99908.16
2022-08-07T14:04:50.311Z,99901.69
2022-08-07T14:07:35.275Z,99900.38
2022-08-07T14:10:43.596Z,99899.41
2022-08-07T14:13:19.206Z,99899.94
2022-08-07T14:15:56.992Z,99901.66
2022-08-07T14:18:37.658Z,99896.69
2022-08-07T14:22:00.458Z,99895.16
2022-08-07T14:24:08.929Z,99893.91
2022-08-07T14:26:50.733Z,99893.94
2022-08-07T14:30:07.940Z,99893.34
2022-08-07T14:32:12.383Z,99890.81
2022-08-07T14:34:46.252Z,99892.47
2022-08-07T14:37:18.222Z,99886.16
2022-08-07T14:40:16.565Z,99880.72
2022-08-07T14:43:01.483Z,99874.59
2022-08-07T14:45:48.717Z,99883.00
2022-08-07T14:48:35.211Z,99870.38
2022-08-07T14:51:15.929Z,99869.78
2022-08-07T14:54:30.952Z,99872.47
2022-08-07T14:56:59.208Z,99870.13
2022-08-07T15:00:05.000Z,99867.66
2022-08-07T15:02:31.860Z,99865.31
2022-08-07T15:05:20.501Z,99862.41
2022-08-07T15:07:55.215Z,99859.00
2022-08-07T15:10:30.032Z,99856.50
2022-08-07T15:13:11.640Z,99860.72
2022-08-07T15:18:40.248Z,99849.56
2022-08-07T15:21:58.772Z,99847.44
2022-08-07T15:25:14.122Z,99848.69
2022-08-07T15:27:15.529Z,99841.13
2022-08-07T15:30:06.943Z,99842.19
2022-08-07T15:44:01.839Z,99833.75
2022-08-07T15:46:32.348Z,99841.31
2022-08-07T15:50:03.507Z,99844.59
2022-08-07T15:52:17.164Z,99841.22
2022-08-07T15:54:51.403Z,99836.69
2022-08-07T15:57:39.883Z,99831.25
2022-08-07T16:00:31.620Z,99838.63
2022-08-07T16:03:46.124Z,99833.13
2022-08-07T16:06:14.259Z,99832.87
2022-08-07T16:08:45.636Z,99841.56
2022-08-07T16:11:28.793Z,99830.53
2022-08-07T16:14:03.644Z,99837.91
2022-08-07T16:16:57.055Z,99834.37
2022-08-07T16:19:58.941Z,99837.94
2022-08-07T16:22:54.333Z,99840.41
2022-08-07T16:25:54.169Z,99841.25
2022-08-07T16:29:18.500Z,99848.41
2022-08-07T16:31:50.973Z,99845.09
2022-08-07T16:34:18.313Z,99836.19
2022-08-07T16:37:02.014Z,99841.84
2022-08-07T16:39:49.322Z,99848.84
2022-08-07T16:42:24.497Z,99844.12
2022-08-07T16:45:30.986Z,99843.94
2022-08-07T16:48:02.563Z,99847.13
2022-08-07T16:50:52.767Z,99840.56
2022-08-07T16:54:02.166Z,99845.00
2022-08-07T16:56:22.173Z,99851.47
2022-08-07T16:59:14.537Z,99846.63
2022-08-07T17:01:59.594Z,99847.94
2022-08-07T17:04:57.739Z,99852.38
2022-08-07T17:07:55.046Z,99852.53
2022-08-07T17:10:33.843Z,99846.69
2022-08-07T17:13:08.368Z,99854.47
2022-08-07T17:15:58.572Z,99848.53
2022-08-07T17:18:34.267Z,99848.34
2022-08-07T17:21:18.906Z,99842.91
2022-08-07T17:24:24.987Z,99855.25
2022-08-07T17:26:59.357Z,99854.22
2022-08-07T17:30:14.632Z,99857.09
2022-08-07T17:32:57.863Z,99850.25
2022-08-07T17:35:55.164Z,99850.91
2022-08-07T17:38:34.179Z,99848.78
2022-08-07T17:42:02.295Z,99851.69
2022-08-07T17:44:05.813Z,99858.81
2022-08-07T17:46:46.354Z,99867.62
2022-08-07T17:49:30.204Z,99865.84
2022-08-07T17:52:35.969Z,99870.19
2022-08-07T17:56:01.334Z,99868.12
2022-08-07T17:58:40.436Z,99866.38
2022-08-07T18:01:21.448Z,99873.16
2022-08-07T18:04:07.190Z,99883.09
2022-08-07T18:06:42.993Z,99883.22
2022-08-07T18:10:05.710Z,99889.41
2022-08-07T18:14:50.366Z,99897.59
2022-08-07T18:18:33.083Z,99906.09
2022-08-07T18:21:04.366Z,99903.38
2022-08-07T18:23:43.262Z,99903.00
2022-08-07T18:26:33.530Z,99908.84
2022-08-07T18:30:06.394Z,99910.53
2022-08-07T18:32:41.693Z,99906.81
2022-08-07T18:35:24.163Z,99908.44
2022-08-07T18:38:56.626Z,99914.53
2022-08-07T18:41:16.845Z,99924.09
2022-08-07T18:46:51.313Z,99920.34
2022-08-07T18:50:32.401Z,99917.78
2022-08-07T18:55:56.242Z,99926.59
2022-08-07T18:58:34.979Z,99927.81
2022-08-07T19:02:17.050Z,99941.13
2022-08-07T19:04:09.631Z,99934.75
2022-08-07T19:06:51.246Z,99946.31
2022-08-07T19:09:57.129Z,99946.44
2022-08-07T19:12:26.491Z,99947.37
2022-08-07T19:15:22.857Z,99969.72
2022-08-07T19:22:30.868Z,99981.53
2022-08-07T19:25:06.652Z,99996.50
2022-08-07T19:28:30.838Z,99998.12
2022-08-07T19:31:00.839Z,100004.91
2022-08-07T19:36:27.834Z,100011.38
2022-08-07T19:39:01.746Z,100008.19
2022-08-07T19:42:08.568Z,100013.34
2022-08-07T19:44:58.899Z,100017.34
2022-08-07T19:47:29.526Z,100028.41
2022-08-07T19:50:45.345Z,100019.22
2022-08-07T19:54:33.607Z,100022.84
2022-08-07T19:59:00.375Z,100035.84
2022-08-07T20:01:52.745Z,100043.28
2022-08-07T20:04:37.534Z,100036.38
2022-08-07T20:07:14.290Z,100032.63
2022-08-07T20:10:35.274Z,100035.31
2022-08-07T20:12:59.075Z,100036.03
2022-08-07T20:15:32.979Z,100036.66
2022-08-07T20:18:19.918Z,100039.41
2022-08-07T20:20:57.317Z,100040.87
2022-08-07T20:23:42.947Z,100043.56
2022-08-07T20:26:32.055Z,100051.16
2022-08-07T20:29:10.528Z,100060.47
2022-08-07T20:34:49.751Z,100056.16
2022-08-07T20:37:25.695Z,100054.84
2022-08-07T20:40:02.774Z,100062.00
2022-08-07T20:42:40.187Z,100057.94
2022-08-07T20:45:33.436Z,100057.72
2022-08-07T20:48:02.356Z,100056.50
2022-08-07T20:50:35.380Z,100054.31
2022-08-07T20:53:10.308Z,100050.69
2022-08-07T20:55:47.669Z,100050.75
2022-08-07T20:58:19.546Z,100050.22
2022-08-07T21:00:57.888Z,100049.00
2022-08-07T21:03:34.528Z,100048.03
2022-08-07T21:06:21.603Z,100051.41
2022-08-07T21:09:24.592Z,100045.59
2022-08-07T21:11:57.367Z,100057.75
2022-08-07T21:14:33.039Z,100066.78
2022-08-07T21:18:01.928Z,100067.31
2022-08-07T21:20:05.807Z,100073.94
2022-08-07T21:22:35.035Z,100073.41
2022-08-07T21:25:12.933Z,100081.03
2022-08-07T21:27:47.172Z,100077.47
2022-08-07T21:30:17.229Z,100077.97
2022-08-07T21:32:55.755Z,100076.19
2022-08-07T21:35:34.743Z,100077.22
2022-08-07T21:38:39.557Z,100080.09
2022-08-07T21:41:19.539Z,100078.53
2022-08-07T21:43:56.750Z,100082.78
2022-08-07T21:46:31.784Z,100080.59
2022-08-07T21:49:16.394Z,100078.41
2022-08-07T21:51:54.883Z,100082.44
2022-08-07T21:54:24.722Z,100087.63
2022-08-07T21:57:05.794Z,100100.12
2022-08-07T22:00:03.992Z,100103.09
2022-08-07T22:02:37.714Z,100104.31
2022-08-07T22:05:12.249Z,100102.00
2022-08-07T22:07:59.564Z,100094.63
2022-08-07T22:10:32.760Z,100103.47
2022-08-07T22:13:09.212Z,100103.62
2022-08-07T22:16:39.248Z,100109.56
2022-08-07T22:18:36.201Z,100100.28
2022-08-07T22:21:19.266Z,100104.34
2022-08-07T22:24:00.442Z,100098.37
2022-08-07T22:26:48.470Z,100109.47
2022-08-07T22:29:51.960Z,100106.91
2022-08-07T22:32:42.514Z,100105.31
2022-08-07T22:35:11.821Z,100108.00
2022-08-07T22:38:03.524Z,100112.97
2022-08-07T22:40:51.457Z,100109.38
2022-08-07T22:43:27.917Z,100116.38
2022-08-07T22:46:42.885Z,100114.19
2022-08-07T22:48:55.478Z,100112.69
2022-08-07T22:51:49.004Z,100111.66
2022-08-07T22:54:22.484Z,100119.38
2022-08-07T22:56:53.279Z,100122.53
2022-08-07T22:59:32.723Z,100131.56
2022-08-07T23:02:15.587Z,100136.66
2022-08-07T23:06:07.065Z,100137.41
2022-08-07T23:07:58.716Z,100147.31
2022-08-07T23:10:42.303Z,100153.31
2022-08-07T23:13:21.538Z,100153.41
2022-08-07T23:16:46.824Z,100148.00
2022-08-07T23:19:19.465Z,100144.22
2022-08-07T23:22:06.654Z,100139.88
2022-08-07T23:24:48.808Z,100145.91
2022-08-07T23:27:33.606Z,100144.44
2022-08-07T23:30:39.545Z,100144.47
2022-08-07T23:34:20.300Z,100145.06
2022-08-07T23:36:01.881Z,100143.75
2022-08-07T23:38:54.619Z,100151.97
2022-08-07T23:42:04.337Z,100161.25
2022-08-07T23:44:35.514Z,100159.31
2022-08-07T23:47:10.492Z,100157.53
2022-08-07T23:49:50.427Z,100151.75
2022-08-07T23:53:05.898Z,100155.06
2022-08-07T23:55:51.994Z,100148.19
2022-08-07T23:58:18.747Z,100145.41
